Time;durP1;ratioP1;P1;durP2;ratioP2;P2;SDS_P1;SDS_P2;PMS_P1;PMS_P2;Temp;Humidity;BMP_temperature;BMP_pressure;BME280_temperature;BME280_humidity;BME280_pressure;Samples;Min_cycle;Max_cycle;Signal;HPM_P1;HPM_P2
2022/12/29 00:00:03;;;;;;;;;;;;;;;5.28;100.00;98566.50;4266740;33;19957;-75
2022/12/29 00:02:58;;;;;;;;;;;;;;;5.15;100.00;98566.69;4257451;33;19946;-74
2022/12/29 00:05:25;;;;;;;;;;;;;;;5.15;100.00;98564.81;4261729;33;19975;-74
2022/12/29 00:07:51;;;;;;;;;;;;;;;5.33;100.00;98561.31;4251518;33;19954;-75
2022/12/29 00:10:17;;;;;;;;;;;;;;;5.34;100.00;98573.59;4252567;33;20081;-76
2022/12/29 00:15:37;;;;;;;;;;;;;;;4.93;100.00;98569.00;4249973;33;20446;-74
2022/12/29 00:18:04;;;;;;;;;;;;;;;5.00;100.00;98578.56;4249587;33;20049;-75
2022/12/29 00:37:05;;;;;;;;;;;;;;;5.02;100.00;98565.81;4266927;33;20321;-75
2022/12/29 00:44:04;;;;;;;;;;;;;;;4.99;100.00;98555.59;4260902;33;19957;-73
2022/12/29 00:45:05;;;;;;;;;;;;;;;5.32;100.00;98543.66;4261071;33;19971;-74
2022/12/29 00:47:31;;;;;;;;;;;;;;;4.86;100.00;98555.75;4266496;33;19945;-74
2022/12/29 00:50:04;;;;;;;;;;;;;;;5.05;100.00;98533.34;4268106;33;19963;-74
2022/12/29 00:52:30;;;;;;;;;;;;;;;4.94;100.00;98542.12;4263807;33;19934;-75
2022/12/29 00:54:56;;;;;;;;;;;;;;;4.81;100.00;98537.75;4263036;33;19945;-74
2022/12/29 00:57:22;;;;;;;;;;;;;;;4.95;100.00;98527.75;4257969;33;19988;-74
2022/12/29 00:59:49;;;;;;;;;;;;;;;4.88;100.00;98532.34;4263697;33;20011;-74
2022/12/29 03:02:33;;;;;;;;;;;;;;;5.25;100.00;98428.97;4339611;27;19991;-75
2022/12/29 03:05:00;;;;;;;;;;;;;;;5.21;100.00;98429.66;4327594;33;19962;-75
2022/12/29 03:07:40;;;;;;;;;;;;;;;5.33;100.00;98427.84;4326114;33;19948;-74
2022/12/29 03:10:30;;;;;;;;;;;;;;;5.41;100.00;98422.16;4327401;33;19993;-75
2022/12/29 03:16:04;;;;;;;;;;;;;;;5.24;100.00;98413.19;4327614;33;19956;-74
2022/12/29 03:18:35;;;;;;;;;;;;;;;5.14;100.00;98413.75;4327144;33;20333;-74
2022/12/29 03:21:17;;;;;;;;;;;;;;;5.17;100.00;98409.81;4327219;33;19944;-74
2022/12/29 03:23:47;;;;;;;;;;;;;;;5.41;100.00;98419.47;4326958;33;20277;-74
2022/12/29 03:26:15;;;;;;;;;;;;;;;5.50;100.00;98411.12;4327007;33;19958;-74
2022/12/29 03:28:46;;;;;;;;;;;;;;;5.20;100.00;98412.00;4318081;33;19944;-74
2022/12/29 03:31:17;;;;;;;;;;;;;;;5.33;100.00;98416.31;4335085;33;19984;-75
2022/12/29 03:33:44;;;;;;;;;;;;;;;5.16;100.00;98414.34;4335549;33;20007;-75
2022/12/29 03:36:15;;;;;;;;;;;;;;;5.31;100.00;98413.88;4334407;33;19983;-75
2022/12/29 03:38:50;;;;;;;;;;;;;;;5.42;100.00;98415.75;4334608;33;19976;-75
2022/12/29 03:41:20;;;;;;;;;;;;;;;5.37;100.00;98412.97;4333744;33;19985;-75
2022/12/29 03:43:46;;;;;;;;;;;;;;;5.44;100.00;98408.34;4331593;33;19996;-75
2022/12/29 03:46:12;;;;;;;;;;;;;;;5.53;100.00;98399.97;4332190;33;20352;-76
2022/12/29 03:48:40;;;;;;;;;;;;;;;5.56;100.00;98391.50;4332375;33;20405;-75
2022/12/29 03:51:06;;;;;;;;;;;;;;;5.44;100.00;98399.50;4330004;33;20287;-75
2022/12/29 03:53:32;;;;;;;;;;;;;;;5.13;100.00;98405.97;4330344;33;19958;-75
2022/12/29 03:56:00;;;;;;;;;;;;;;;5.30;100.00;98398.94;4333819;33;19947;-75
2022/12/29 03:58:26;;;;;;;;;;;;;;;5.42;100.00;98389.06;4320317;33;19944;-75
2022/12/29 04:00:53;;;;;;;;;;;;;;;5.42;100.00;98389.06;4315432;33;19962;-75
2022/12/29 04:03:20;;;;;;;;;;;;;;;5.05;100.00;98389.25;4312073;33;20000;-75
2022/12/29 04:05:46;;;;;;;;;;;;;;;5.25;100.00;98380.94;4312599;33;19970;-75
2022/12/29 04:08:12;;;;;;;;;;;;;;;4.93;100.00;98374.25;4315124;33;19952;-75
2022/12/29 04:10:39;;;;;;;;;;;;;;;5.12;100.00;98361.66;4327294;33;19962;-75
2022/12/29 04:13:05;;;;;;;;;;;;;;;5.25;100.00;98350.78;4325344;33;19944;-74
2022/12/29 04:15:31;;;;;;;;;;;;;;;5.21;100.00;98360.28;4330103;33;20188;-75
2022/12/29 04:17:58;;;;;;;;;;;;;;;5.36;100.00;98357.97;4329414;33;20002;-75
2022/12/29 04:23:10;;;;;;;;;;;;;;;5.14;100.00;98354.22;4322745;33;19948;-74
2022/12/29 04:25:37;;;;;;;;;;;;;;;5.35;100.00;98361.66;4326601;33;19961;-74
2022/12/29 04:28:03;;;;;;;;;;;;;;;5.09;100.00;98357.59;4326597;33;19948;-74
2022/12/29 04:30:30;;;;;;;;;;;;;;;5.34;100.00;98349.34;4326584;33;19960;-75
2022/12/29 04:32:57;;;;;;;;;;;;;;;5.02;100.00;98363.03;4292959;33;19967;-74
2022/12/29 04:35:23;;;;;;;;;;;;;;;5.11;100.00;98349.38;4294323;33;19961;-75
2022/12/29 04:37:50;;;;;;;;;;;;;;;5.41;100.00;98355.41;4293900;33;19963;-75
2022/12/29 04:40:16;;;;;;;;;;;;;;;5.22;100.00;98345.88;4294900;33;19960;-74
2022/12/29 04:42:42;;;;;;;;;;;;;;;5.14;100.00;98344.38;4294528;33;20028;-74
2022/12/29 04:45:09;;;;;;;;;;;;;;;5.28;100.00;98339.59;4293591;33;20600;-74
2022/12/29 04:47:35;;;;;;;;;;;;;;;5.26;100.00;98341.69;4283245;33;20353;-74
2022/12/29 04:50:03;;;;;;;;;;;;;;;5.22;100.00;98344.03;4294120;33;20094;-74
2022/12/29 04:52:29;;;;;;;;;;;;;;;5.21;100.00;98339.72;4294720;33;20075;-74
2022/12/29 04:54:56;;;;;;;;;;;;;;;5.33;100.00;98337.06;4294762;33;19967;-74
2022/12/29 04:57:22;;;;;;;;;;;;;;;5.27;100.00;98341.47;4292604;33;20359;-74
2022/12/29 04:59:51;;;;;;;;;;;;;;;5.28;100.00;98328.91;4295002;33;19963;-74
2022/12/29 05:02:17;;;;;;;;;;;;;;;5.37;100.00;98338.22;4294758;33;20293;-74
2022/12/29 05:04:45;;;;;;;;;;;;;;;5.42;100.00;98345.53;4315642;33;20283;-74
2022/12/29 05:07:12;;;;;;;;;;;;;;;5.34;100.00;98329.88;4325068;33;19948;-74
2022/12/29 05:09:38;;;;;;;;;;;;;;;5.54;100.00;98345.53;4323835;33;19984;-74
2022/12/29 05:12:04;;;;;;;;;;;;;;;5.56;100.00;98348.78;4326136;33;19977;-75
2022/12/29 05:14:31;;;;;;;;;;;;;;;5.49;100.00;98324.87;4325387;33;19962;-74
2022/12/29 05:16:58;;;;;;;;;;;;;;;5.74;100.00;98321.91;4325714;33;20341;-75
2022/12/29 05:19:24;;;;;;;;;;;;;;;5.61;100.00;98322.19;4323507;33;19948;-74
2022/12/29 05:21:51;;;;;;;;;;;;;;;5.48;100.00;98319.75;4325727;33;19970;-74
2022/12/29 05:24:18;;;;;;;;;;;;;;;5.60;100.00;98317.88;4325205;33;19988;-74
2022/12/29 05:26:44;;;;;;;;;;;;;;;5.41;100.00;98309.22;4325661;33;19952;-75
2022/12/29 05:29:11;;;;;;;;;;;;;;;5.44;100.00;98312.22;4319076;33;19954;-74
2022/12/29 05:31:37;;;;;;;;;;;;;;;5.62;100.00;98323.81;4315131;33;20089;-74
2022/12/29 05:34:04;;;;;;;;;;;;;;;5.67;100.00;98321.25;4311051;33;19952;-74
2022/12/29 05:36:30;;;;;;;;;;;;;;;5.45;100.00;98324.50;4311814;33;19948;-74
2022/12/29 05:38:58;;;;;;;;;;;;;;;5.63;100.00;98330.75;4314455;33;20447;-75
2022/12/29 05:41:24;;;;;;;;;;;;;;;5.62;100.00;98334.50;4325283;33;19958;-74
2022/12/29 05:43:56;;;;;;;;;;;;;;;5.46;100.00;98347.50;4325437;33;19963;-75
2022/12/29 05:46:22;;;;;;;;;;;;;;;5.80;100.00;98342.34;4325734;33;19964;-74
2022/12/29 05:48:49;;;;;;;;;;;;;;;5.67;100.00;98353.28;4309514;33;19941;-75
2022/12/29 05:51:16;;;;;;;;;;;;;;;5.74;100.00;98348.63;4308202;33;20067;-75
2022/12/29 05:53:43;;;;;;;;;;;;;;;5.49;100.00;98350.75;4308733;33;19949;-74
2022/12/29 05:56:09;;;;;;;;;;;;;;;5.68;100.00;98348.75;4308192;33;20021;-74
2022/12/29 05:58:36;;;;;;;;;;;;;;;5.22;100.00;98336.00;4308624;33;19952;-74
2022/12/29 06:01:02;;;;;;;;;;;;;;;5.59;100.00;98334.97;4309494;33;19952;-74
2022/12/29 06:03:29;;;;;;;;;;;;;;;5.41;100.00;98350.06;4309312;33;19951;-75
2022/12/29 06:05:55;;;;;;;;;;;;;;;5.30;100.00;98332.19;4307906;33;19949;-74
2022/12/29 06:08:21;;;;;;;;;;;;;;;5.21;100.00;98354.94;4308350;33;20755;-74
2022/12/29 06:10:47;;;;;;;;;;;;;;;5.18;100.00;98350.06;4309306;33;19954;-74
2022/12/29 06:13:14;;;;;;;;;;;;;;;5.45;100.00;98343.19;4307805;33;19945;-74
2022/12/29 06:15:40;;;;;;;;;;;;;;;5.70;100.00;98342.13;4308993;33;19941;-73
2022/12/29 06:18:13;;;;;;;;;;;;;;;5.44;100.00;98333.59;4309712;33;19973;-75
2022/12/29 06:20:39;;;;;;;;;;;;;;;5.53;100.00;98341.22;4325936;33;19960;-74
2022/12/29 06:23:06;;;;;;;;;;;;;;;5.20;100.00;98331.94;4328378;33;19940;-74
2022/12/29 06:25:33;;;;;;;;;;;;;;;5.45;100.00;98335.19;4328775;33;19948;-74
2022/12/29 06:27:59;;;;;;;;;;;;;;;5.51;100.00;98327.31;4296318;33;19959;-74
2022/12/29 06:30:25;;;;;;;;;;;;;;;5.42;100.00;98330.31;4296378;33;19955;-74
2022/12/29 06:32:52;;;;;;;;;;;;;;;5.58;100.00;98311.97;4297570;33;20237;-74
2022/12/29 06:35:19;;;;;;;;;;;;;;;5.42;100.00;98308.16;4289097;33;19954;-74
2022/12/29 06:37:45;;;;;;;;;;;;;;;5.17;100.00;98319.06;4282544;33;20060;-74
2022/12/29 06:40:11;;;;;;;;;;;;;;;5.38;100.00;98307.00;4292226;33;19941;-74
2022/12/29 06:42:39;;;;;;;;;;;;;;;5.54;100.00;98321.50;4296801;33;19949;-75
2022/12/29 06:45:07;;;;;;;;;;;;;;;5.20;100.00;98326.59;4297340;33;19955;-76
2022/12/29 06:47:34;;;;;;;;;;;;;;;5.38;100.00;98313.16;4297091;33;19955;-76
2022/12/29 06:50:00;;;;;;;;;;;;;;;5.49;100.00;98306.19;4281404;33;20342;-75
2022/12/29 06:52:28;;;;;;;;;;;;;;;5.23;100.00;98320.81;4268801;33;20006;-74
2022/12/29 06:54:54;;;;;;;;;;;;;;;5.38;100.00;98307.81;4280233;33;20535;-74
2022/12/29 06:57:21;;;;;;;;;;;;;;;5.26;100.00;98328.34;4279194;33;19968;-74
2022/12/29 06:59:47;;;;;;;;;;;;;;;5.60;100.00;98315.19;4293592;33;19982;-73
2022/12/29 07:02:14;;;;;;;;;;;;;;;5.56;100.00;98314.06;4295758;33;19971;-74
2022/12/29 07:04:40;;;;;;;;;;;;;;;5.64;100.00;98317.16;4295644;33;19950;-79
2022/12/29 07:07:06;;;;;;;;;;;;;;;5.45;100.00;98313.81;4294948;33;20331;-77
2022/12/29 07:09:33;;;;;;;;;;;;;;;5.45;100.00;98321.03;4295954;33;20284;-77
2022/12/29 07:12:01;;;;;;;;;;;;;;;5.42;100.00;98324.97;4290404;33;19967;-76
2022/12/29 07:14:32;;;;;;;;;;;;;;;5.61;100.00;98319.50;4293794;33;19986;-76
2022/12/29 07:17:06;;;;;;;;;;;;;;;5.68;100.00;98322.88;4296918;33;19959;-77
2022/12/29 07:19:32;;;;;;;;;;;;;;;5.79;100.00;98327.38;4296012;33;19945;-77
2022/12/29 07:21:59;;;;;;;;;;;;;;;5.53;100.00;98341.22;4319677;33;19988;-77
2022/12/29 07:24:29;;;;;;;;;;;;;;;5.63;100.00;98330.75;4290666;33;20299;-77
2022/12/29 07:26:59;;;;;;;;;;;;;;;5.53;100.00;98327.88;4298808;33;19944;-79
2022/12/29 07:29:30;;;;;;;;;;;;;;;5.52;100.00;98328.91;4298803;33;19950;-77
2022/12/29 07:31:57;;;;;;;;;;;;;;;5.77;100.00;98310.75;4295310;33;19962;-74
2022/12/29 07:34:23;;;;;;;;;;;;;;;5.65;100.00;98315.34;4294932;33;20366;-75
2022/12/29 07:36:55;;;;;;;;;;;;;;;5.46;100.00;98317.31;4297864;33;19960;-77
2022/12/29 07:39:21;;;;;;;;;;;;;;;5.71;100.00;98322.41;4295592;33;20357;-76
2022/12/29 07:41:47;;;;;;;;;;;;;;;5.68;100.00;98327.38;4285872;33;19956;-75
2022/12/29 07:44:16;;;;;;;;;;;;;;;5.92;100.00;98325.47;4288614;33;19937;-75
2022/12/29 07:46:43;;;;;;;;;;;;;;;5.74;100.00;98319.25;4289890;33;19954;-76
2022/12/29 07:49:10;;;;;;;;;;;;;;;5.86;100.00;98326.44;4287182;33;20396;-77
2022/12/29 07:51:36;;;;;;;;;;;;;;;5.93;100.00;98324.44;4294356;33;19998;-77
2022/12/29 07:54:02;;;;;;;;;;;;;;;5.80;100.00;98318.31;4295610;33;20064;-77
2022/12/29 07:56:29;;;;;;;;;;;;;;;5.75;100.00;98323.53;4251633;33;19961;-75
2022/12/29 07:58:55;;;;;;;;;;;;;;;5.97;100.00;98325.63;4251821;33;20004;-75
2022/12/29 08:01:23;;;;;;;;;;;;;;;5.80;100.00;98325.50;4253362;33;19946;-75
2022/12/29 08:03:49;;;;;;;;;;;;;;;5.81;100.00;98322.59;4249219;33;19950;-76
2022/12/29 08:06:15;;;;;;;;;;;;;;;5.81;100.00;98327.94;4237962;33;20374;-76
2022/12/29 08:08:41;;;;;;;;;;;;;;;5.40;100.00;98265.66;4237132;33;19986;-76
2022/12/29 08:11:08;;;;;;;;;;;;;;;5.87;100.00;98322.69;4239001;33;19954;-76
2022/12/29 08:13:34;;;;;;;;;;;;;;;5.82;100.00;98324.25;4241309;33;19942;-76
2022/12/29 08:16:00;;;;;;;;;;;;;;;5.92;100.00;98322.81;4238951;33;19950;-76
2022/12/29 08:18:26;;;;;;;;;;;;;;;5.88;100.00;98321.66;4238157;33;19942;-76
2022/12/29 08:20:53;;;;;;;;;;;;;;;5.86;100.00;98321.91;4244681;33;19949;-76
2022/12/29 08:23:19;;;;;;;;;;;;;;;6.22;100.00;98327.16;4244121;33;20297;-77
2022/12/29 08:25:45;;;;;;;;;;;;;;;6.03;100.00;98324.69;4238505;33;19948;-77
2022/12/29 08:28:11;;;;;;;;;;;;;;;5.93;100.00;98319.09;4248574;33;19938;-77
2022/12/29 08:30:37;;;;;;;;;;;;;;;5.88;100.00;98327.00;4250269;33;20294;-78
2022/12/29 08:33:04;;;;;;;;;;;;;;;5.96;100.00;98332.81;4284631;33;19999;-77
2022/12/29 08:35:30;;;;;;;;;;;;;;;6.05;100.00;98317.22;4289184;33;19944;-77
2022/12/29 08:37:56;;;;;;;;;;;;;;;6.04;100.00;98320.94;4282451;33;20072;-77
2022/12/29 08:40:28;;;;;;;;;;;;;;;6.16;100.00;98308.34;4287123;33;20002;-76
2022/12/29 08:42:55;;;;;;;;;;;;;;;5.95;100.00;98327.66;4261657;33;20348;-77
2022/12/29 08:45:27;;;;;;;;;;;;;;;6.06;100.00;98329.53;4277853;33;19945;-77
2022/12/29 08:47:57;;;;;;;;;;;;;;;6.15;100.00;98322.75;4281197;33;19938;-77
2022/12/29 08:50:23;;;;;;;;;;;;;;;6.27;100.00;98332.59;4280473;33;19976;-77
2022/12/29 08:52:49;;;;;;;;;;;;;;;6.08;100.00;98338.13;4279805;33;19953;-77
2022/12/29 08:55:15;;;;;;;;;;;;;;;6.23;100.00;98344.84;4281632;33;19941;-77
2022/12/29 08:57:42;;;;;;;;;;;;;;;6.05;100.00;98346.63;4266211;33;19955;-77
2022/12/29 09:00:09;;;;;;;;;;;;;;;6.21;100.00;98326.34;4266351;33;20291;-76
2022/12/29 09:02:36;;;;;;;;;;;;;;;6.20;100.00;98356.00;4264481;33;19946;-77
2022/12/29 09:05:02;;;;;;;;;;;;;;;6.21;100.00;98337.06;4266695;33;20271;-77
2022/12/29 09:07:35;;;;;;;;;;;;;;;6.43;100.00;98339.87;4264746;33;19953;-76
2022/12/29 09:10:02;;;;;;;;;;;;;;;6.26;100.00;98317.63;4266071;33;19958;-75
2022/12/29 09:12:28;;;;;;;;;;;;;;;6.43;100.00;98313.12;4264993;33;19989;-76
2022/12/29 09:15:00;;;;;;;;;;;;;;;6.31;100.00;98309.69;4264494;33;20845;-77
2022/12/29 09:17:45;;;;;;;;;;;;;;;6.40;100.00;98302.06;4265049;33;20410;-77
2022/12/29 09:20:15;;;;;;;;;;;;;;;6.29;100.00;98306.47;4265116;33;20008;-75
2022/12/29 09:22:42;;;;;;;;;;;;;;;6.51;100.00;98315.41;4266600;33;20012;-76
2022/12/29 09:25:13;;;;;;;;;;;;;;;6.50;100.00;98313.78;4289017;33;19967;-74
2022/12/29 09:27:44;;;;;;;;;;;;;;;6.63;100.00;98311.84;4290419;33;19998;-74
2022/12/29 09:30:17;;;;;;;;;;;;;;;6.74;100.00;98319.00;4309364;33;19959;-75
2022/12/29 09:32:46;;;;;;;;;;;;;;;6.68;100.00;98328.78;4299713;33;20012;-75
2022/12/29 09:35:17;;;;;;;;;;;;;;;6.42;100.00;98316.84;4299893;33;19966;-75
2022/12/29 09:37:44;;;;;;;;;;;;;;;6.64;100.00;98314.28;4309374;33;20326;-76
2022/12/29 09:40:26;;;;;;;;;;;;;;;6.81;100.00;98319.66;4303882;33;19953;-75
2022/12/29 09:43:03;;;;;;;;;;;;;;;6.63;100.00;98317.22;4308013;33;19944;-76
2022/12/29 09:45:43;;;;;;;;;;;;;;;7.08;100.00;98308.28;4291451;33;19964;-76
2022/12/29 09:48:39;;;;;;;;;;;;;;;7.04;100.00;98304.50;4292655;33;19956;-75
2022/12/29 09:51:19;;;;;;;;;;;;;;;6.93;100.00;98305.41;4290167;33;19949;-75
2022/12/29 09:53:51;;;;;;;;;;;;;;;7.08;100.00;98301.09;4294561;33;19974;-76
2022/12/29 09:56:21;;;;;;;;;;;;;;;7.01;100.00;98296.97;4296371;33;20012;-76
2022/12/29 09:58:54;;;;;;;;;;;;;;;6.98;100.00;98292.88;4293380;33;20019;-76
2022/12/29 10:01:32;;;;;;;;;;;;;;;7.19;100.00;98294.00;4295323;33;19973;-76
2022/12/29 10:04:02;;;;;;;;;;;;;;;7.12;100.00;98285.34;4285738;33;19948;-76
2022/12/29 10:06:34;;;;;;;;;;;;;;;7.22;100.00;98293.50;4293889;33;20087;-76
2022/12/29 10:09:16;;;;;;;;;;;;;;;7.25;100.00;98290.34;4291063;33;19965;-76
2022/12/29 10:12:07;;;;;;;;;;;;;;;7.26;100.00;98291.19;4288506;33;19949;-75
2022/12/29 10:14:52;;;;;;;;;;;;;;;7.08;100.00;98285.03;4285924;33;19964;-75
2022/12/29 10:17:37;;;;;;;;;;;;;;;7.22;100.00;98280.13;4313364;33;20001;-75
2022/12/29 10:20:15;;;;;;;;;;;;;;;7.03;100.00;98294.84;4327026;33;19982;-75
2022/12/29 10:22:56;;;;;;;;;;;;;;;7.39;100.00;98271.25;4295105;33;19940;-75
2022/12/29 10:25:25;;;;;;;;;;;;;;;7.47;100.00;98278.87;4293186;33;19953;-75
2022/12/29 10:27:53;;;;;;;;;;;;;;;7.25;100.00;98287.66;4295648;33;19955;-75
2022/12/29 10:30:20;;;;;;;;;;;;;;;7.61;100.00;98274.78;4283795;33;20113;-76
2022/12/29 10:32:47;;;;;;;;;;;;;;;7.62;100.00;98275.56;4295748;33;20036;-74
2022/12/29 10:35:20;;;;;;;;;;;;;;;7.57;100.00;98292.38;4265651;33;20062;-73
2022/12/29 10:37:56;;;;;;;;;;;;;;;7.67;100.00;98293.59;4264970;33;20792;-74
2022/12/29 10:40:31;;;;;;;;;;;;;;;7.59;100.00;98282.22;4260521;33;19945;-74
2022/12/29 10:42:58;;;;;;;;;;;;;;;7.38;100.00;98291.06;4238628;33;19966;-74
2022/12/29 10:45:28;;;;;;;;;;;;;;;7.46;100.00;98271.87;4238300;33;19960;-74
2022/12/29 10:47:59;;;;;;;;;;;;;;;7.20;100.00;98278.78;4239503;33;19968;-73
2022/12/29 10:50:26;;;;;;;;;;;;;;;7.54;100.00;98289.41;4253804;33;19980;-74
2022/12/29 10:53:01;;;;;;;;;;;;;;;7.42;100.00;98271.56;4255129;33;20110;-74
2022/12/29 10:55:33;;;;;;;;;;;;;;;7.61;100.00;98280.13;4277366;33;20007;-73
2022/12/29 10:58:04;;;;;;;;;;;;;;;7.41;100.00;98279.84;4275532;33;20991;-74
2022/12/29 11:00:31;;;;;;;;;;;;;;;7.72;100.00;98274.88;4281418;33;19990;-73
2022/12/29 11:03:04;;;;;;;;;;;;;;;7.46;100.00;98271.87;4274728;33;20284;-73
2022/12/29 11:05:49;;;;;;;;;;;;;;;7.69;100.00;98270.03;4277942;33;19990;-74
2022/12/29 11:08:20;;;;;;;;;;;;;;;7.71;100.00;98273.28;4288387;33;20334;-74
2022/12/29 11:10:56;;;;;;;;;;;;;;;7.85;100.00;98273.69;4292851;33;19949;-74
2022/12/29 11:13:27;;;;;;;;;;;;;;;7.73;100.00;98287.22;4292172;33;19971;-73
2022/12/29 11:16:00;;;;;;;;;;;;;;;7.64;100.00;98268.91;4292238;33;19959;-73
2022/12/29 11:18:32;;;;;;;;;;;;;;;7.77;100.00;98266.91;4290528;33;20162;-73
2022/12/29 11:21:00;;;;;;;;;;;;;;;7.76;100.00;98265.31;4290352;33;20014;-74
2022/12/29 11:23:35;;;;;;;;;;;;;;;7.94;100.00;98262.28;4292382;33;19970;-73
2022/12/29 11:26:13;;;;;;;;;;;;;;;8.16;100.00;98258.75;4288981;33;19995;-73
2022/12/29 11:28:41;;;;;;;;;;;;;;;8.23;100.00;98262.03;4298820;33;19991;-73
2022/12/29 11:31:08;;;;;;;;;;;;;;;8.09;100.00;98252.78;4297674;33;19953;-74
2022/12/29 11:33:36;;;;;;;;;;;;;;;8.45;100.00;98250.47;4295003;33;19941;-73
2022/12/29 11:36:07;;;;;;;;;;;;;;;8.35;100.00;98241.25;4292043;33;19971;-73
2022/12/29 11:38:36;;;;;;;;;;;;;;;8.40;100.00;98247.72;4287798;33;19949;-74
2022/12/29 11:41:03;;;;;;;;;;;;;;;8.52;100.00;98240.34;4293002;33;19971;-73
2022/12/29 11:43:35;;;;;;;;;;;;;;;8.29;100.00;98261.03;4292730;33;20377;-74
2022/12/29 11:46:03;;;;;;;;;;;;;;;8.40;100.00;98253.09;4292030;33;19941;-74
2022/12/29 11:48:37;;;;;;;;;;;;;;;8.38;100.00;98245.31;4286052;33;20011;-73
2022/12/29 11:51:04;;;;;;;;;;;;;;;8.54;100.00;98243.59;4290811;33;19987;-74
2022/12/29 11:53:36;;;;;;;;;;;;;;;8.22;100.00;98247.03;4290264;33;19948;-73
2022/12/29 11:56:05;;;;;;;;;;;;;;;8.26;100.00;98253.50;4292610;33;20323;-73
2022/12/29 11:58:33;;;;;;;;;;;;;;;8.17;100.00;98250.47;4317852;33;19973;-73
2022/12/29 12:01:19;;;;;;;;;;;;;;;8.33;100.00;98243.38;4494463;27;20201;-74
2022/12/29 12:03:52;;;;;;;;;;;;;;;8.43;100.00;98236.50;4316768;33;19978;-73
2022/12/29 12:06:21;;;;;;;;;;;;;;;8.55;100.00;98226.41;4327011;33;19962;-73
2022/12/29 12:08:52;;;;;;;;;;;;;;;8.58;100.00;98250.06;4325751;33;19962;-73
2022/12/29 12:11:36;;;;;;;;;;;;;;;8.62;100.00;98235.06;4317986;33;19944;-73
2022/12/29 12:14:21;;;;;;;;;;;;;;;8.67;100.00;98232.41;4310296;33;20000;-75
2022/12/29 12:16:55;;;;;;;;;;;;;;;8.55;100.00;98229.09;4297174;33;20002;-77
2022/12/29 12:19:23;;;;;;;;;;;;;;;8.34;100.00;98247.69;4265032;33;19951;-76
2022/12/29 12:21:53;;;;;;;;;;;;;;;8.26;100.00;98231.22;4267318;33;19968;-76
2022/12/29 12:24:28;;;;;;;;;;;;;;;8.65;100.00;98229.19;4266468;33;19952;-77
2022/12/29 12:26:58;;;;;;;;;;;;;;;8.47;100.00;98226.88;4267181;33;20390;-76
2022/12/29 12:29:42;;;;;;;;;;;;;;;8.42;100.00;98229.50;4273000;33;19957;-77
2022/12/29 12:32:12;;;;;;;;;;;;;;;8.59;100.00;98235.56;4269460;33;19965;-78
2022/12/29 12:34:40;;;;;;;;;;;;;;;8.50;100.00;98231.75;4280989;33;19947;-77
2022/12/29 12:37:22;;;;;;;;;;;;;;;8.78;100.00;98235.19;4280724;33;19961;-78
2022/12/29 12:40:02;;;;;;;;;;;;;;;8.69;100.00;98221.44;4276359;33;20001;-77
2022/12/29 12:42:46;;;;;;;;;;;;;;;8.77;100.00;98222.84;4279607;33;19963;-77
2022/12/29 12:45:15;;;;;;;;;;;;;;;8.63;100.00;98220.59;4280730;33;20355;-78
2022/12/29 12:47:47;;;;;;;;;;;;;;;8.66;100.00;98236.19;4279185;33;19993;-77
2022/12/29 12:50:34;;;;;;;;;;;;;;;8.47;100.00;98178.59;4285516;33;19970;-78
2022/12/29 12:53:06;;;;;;;;;;;;;;;8.79;100.00;98223.38;4288905;33;20064;-77
2022/12/29 12:55:35;;;;;;;;;;;;;;;8.75;100.00;98224.97;4264424;33;20045;-77
2022/12/29 12:58:16;;;;;;;;;;;;;;;8.77;100.00;98225.50;4266449;33;20526;-77
2022/12/29 13:00:55;;;;;;;;;;;;;;;8.78;100.00;98227.16;4252435;33;19969;-77
2022/12/29 13:03:21;;;;;;;;;;;;;;;8.76;100.00;98229.25;4250847;33;19942;-78
2022/12/29 13:06:07;;;;;;;;;;;;;;;8.79;100.00;98234.09;4257102;33;19949;-77
2022/12/29 13:08:49;;;;;;;;;;;;;;;8.86;100.00;98238.19;4236326;33;19947;-78
2022/12/29 13:11:18;;;;;;;;;;;;;;;8.89;100.00;98228.84;4236859;33;19952;-79
2022/12/29 13:13:50;;;;;;;;;;;;;;;8.95;100.00;98222.44;4257126;33;19980;-76
2022/12/29 13:16:16;;;;;;;;;;;;;;;8.94;100.00;98236.91;4287100;33;19953;-76
2022/12/29 13:18:52;;;;;;;;;;;;;;;9.05;100.00;98230.53;4272198;33;19959;-77
2022/12/29 13:21:28;;;;;;;;;;;;;;;8.71;100.00;98238.06;4287560;33;19942;-76
2022/12/29 13:23:57;;;;;;;;;;;;;;;8.93;100.00;98219.19;4283257;33;20005;-76
2022/12/29 13:26:29;;;;;;;;;;;;;;;9.06;100.00;98229.47;4284737;33;19941;-75
2022/12/29 13:29:14;;;;;;;;;;;;;;;9.17;100.00;98232.22;4291052;33;20377;-76
2022/12/29 13:32:01;;;;;;;;;;;;;;;9.15;100.00;98237.84;4288819;33;19940;-76
2022/12/29 13:34:42;;;;;;;;;;;;;;;9.29;100.00;98227.47;4242276;33;19959;-76
2022/12/29 13:37:19;;;;;;;;;;;;;;;9.03;100.00;98224.63;4264665;33;19954;-76
2022/12/29 13:40:08;;;;;;;;;;;;;;;9.19;100.00;98222.00;4260356;33;20029;-75
2022/12/29 13:42:35;;;;;;;;;;;;;;;9.36;100.00;98235.28;4247644;33;19945;-76
2022/12/29 13:45:05;;;;;;;;;;;;;;;9.44;100.00;98224.03;4255595;33;20264;-76
2022/12/29 13:47:37;;;;;;;;;;;;;;;9.23;100.00;98223.13;4258292;33;19962;-76
2022/12/29 13:50:06;;;;;;;;;;;;;;;8.98;100.00;98221.88;4273850;33;19978;-76
2022/12/29 13:52:36;;;;;;;;;;;;;;;9.32;100.00;98229.62;4288404;33;19996;-76
2022/12/29 13:55:05;;;;;;;;;;;;;;;9.16;100.00;98233.28;4290713;33;19956;-76
2022/12/29 13:57:38;;;;;;;;;;;;;;;9.17;100.00;98241.06;4289697;33;20034;-76
2022/12/29 14:00:13;;;;;;;;;;;;;;;9.37;100.00;98240.37;4290429;33;20394;-75
2022/12/29 14:02:45;;;;;;;;;;;;;;;9.53;100.00;98230.53;4292863;33;20353;-76
2022/12/29 14:05:20;;;;;;;;;;;;;;;9.39;100.00;98243.62;4286661;33;19953;-76
2022/12/29 14:07:48;;;;;;;;;;;;;;;9.24;100.00;98251.62;4283876;33;20282;-75
2022/12/29 14:10:43;;;;;;;;;;;;;;;9.50;100.00;98251.75;4280354;33;20161;-76
2022/12/29 14:13:20;;;;;;;;;;;;;;;9.29;100.00;98259.69;4278374;33;20385;-76
2022/12/29 14:16:05;;;;;;;;;;;;;;;9.43;100.00;98255.47;4286387;33;19945;-76
2022/12/29 14:18:33;;;;;;;;;;;;;;;9.23;100.00;98252.66;4281862;33;20235;-77
2022/12/29 14:21:04;;;;;;;;;;;;;;;9.32;100.00;98253.81;4240102;33;19982;-77
2022/12/29 14:23:44;;;;;;;;;;;;;;;9.47;100.00;98249.56;4248242;33;19950;-78
2022/12/29 14:26:16;;;;;;;;;;;;;;;9.41;100.00;98252.25;4245242;33;19946;-79
2022/12/29 14:28:47;;;;;;;;;;;;;;;9.24;100.00;98247.03;4275154;33;20321;-76
2022/12/29 14:31:13;;;;;;;;;;;;;;;9.43;100.00;98249.28;4249468;33;20008;-75
2022/12/29 14:33:40;;;;;;;;;;;;;;;9.28;100.00;98247.31;4250602;33;19957;-77
2022/12/29 14:36:19;;;;;;;;;;;;;;;9.06;100.00;98248.28;4248552;33;19945;-75
2022/12/29 14:38:46;;;;;;;;;;;;;;;8.87;100.00;98253.25;4249849;33;19946;-78
2022/12/29 14:41:16;;;;;;;;;;;;;;;9.10;100.00;98256.63;4224003;33;20436;-75
2022/12/29 14:43:52;;;;;;;;;;;;;;;9.09;100.00;98258.50;4224345;33;20757;-76
2022/12/29 14:46:19;;;;;;;;;;;;;;;9.01;100.00;98258.97;4218586;33;19947;-76
2022/12/29 14:48:45;;;;;;;;;;;;;;;9.00;100.00;98249.31;4222537;33;20005;-75
2022/12/29 14:51:19;;;;;;;;;;;;;;;9.03;100.00;98256.03;4224783;33;20341;-76
2022/12/29 14:53:49;;;;;;;;;;;;;;;8.92;100.00;98260.53;4222112;33;20065;-76
2022/12/29 14:56:17;;;;;;;;;;;;;;;8.82;100.00;98260.44;4221660;33;20058;-75
2022/12/29 14:58:46;;;;;;;;;;;;;;;8.82;100.00;98265.81;4223999;33;19947;-76
2022/12/29 15:01:22;;;;;;;;;;;;;;;8.95;100.00;98273.44;4223695;33;19954;-76
2022/12/29 15:03:52;;;;;;;;;;;;;;;8.89;100.00;98269.09;4223963;33;20342;-75
2022/12/29 15:06:22;;;;;;;;;;;;;;;8.84;100.00;98271.72;4222260;33;19947;-75
2022/12/29 15:08:54;;;;;;;;;;;;;;;8.97;100.00;98263.25;4243280;33;19968;-74
2022/12/29 15:11:31;;;;;;;;;;;;;;;8.89;100.00;98261.03;4250954;33;20034;-75
2022/12/29 15:13:57;;;;;;;;;;;;;;;8.72;100.00;98271.91;4279104;33;19949;-74
2022/12/29 15:16:36;;;;;;;;;;;;;;;8.94;100.00;98253.03;4278508;33;19995;-75
2022/12/29 15:19:04;;;;;;;;;;;;;;;9.20;100.00;98266.62;4279396;33;20905;-75
2022/12/29 15:21:33;;;;;;;;;;;;;;;9.05;100.00;98254.72;4279491;33;19949;-75
2022/12/29 15:23:59;;;;;;;;;;;;;;;9.05;100.00;98261.97;4283303;33;19950;-75
2022/12/29 15:26:39;;;;;;;;;;;;;;;8.97;100.00;98262.44;4308013;33;19948;-74
2022/12/29 15:29:26;;;;;;;;;;;;;;;8.87;100.00;98264.00;4306903;33;20364;-75
2022/12/29 15:31:52;;;;;;;;;;;;;;;8.76;100.00;98256.94;4307266;33;19991;-77